createdAt,value
2023-05-03T00:01:17.599Z,4.90
2023-05-03T00:03:53.007Z,5.63
2023-05-03T00:06:25.947Z,5.50
2023-05-03T00:08:57.920Z,5.85
2023-05-03T00:11:30.592Z,5.20
2023-05-03T00:14:02.698Z,5.95
2023-05-03T00:16:35.606Z,5.30
2023-05-03T00:19:10.707Z,6.72
2023-05-03T00:21:50.535Z,6.00
2023-05-03T00:24:22.469Z,5.60
2023-05-03T00:26:55.444Z,6.25
2023-05-03T00:29:27.918Z,6.17
2023-05-03T00:32:00.655Z,6.13
2023-05-03T00:34:32.601Z,6.90
2023-05-03T00:37:06.097Z,6.57
2023-05-03T00:39:38.014Z,6.38
2023-05-03T00:42:10.809Z,6.53
2023-05-03T00:44:43.063Z,6.93
2023-05-03T00:47:17.152Z,6.78
2023-05-03T00:49:49.498Z,7.05
2023-05-03T00:52:22.147Z,6.35
2023-05-03T00:54:54.180Z,6.63
2023-05-03T00:57:28.863Z,6.25
2023-05-03T01:00:01.417Z,6.30
2023-05-03T01:02:34.749Z,5.88
2023-05-03T01:05:07.735Z,6.63
2023-05-03T01:07:56.380Z,5.93
2023-05-03T01:10:42.602Z,7.03
2023-05-03T01:13:19.788Z,6.68
2023-05-03T01:16:07.089Z,5.80
2023-05-03T01:18:44.573Z,6.20
2023-05-03T01:21:20.585Z,5.47
2023-05-03T01:24:14.662Z,6.35
2023-05-03T01:26:47.856Z,5.50
2023-05-03T01:29:20.929Z,5.32
2023-05-03T01:32:07.485Z,5.65
2023-05-03T01:35:06.062Z,5.40
2023-05-03T01:37:38.275Z,5.65
2023-05-03T01:40:13.398Z,5.70
2023-05-03T01:42:46.004Z,5.95
2023-05-03T01:45:20.694Z,6.30
2023-05-03T01:47:53.056Z,6.17
2023-05-03T01:50:25.105Z,6.68
2023-05-03T01:52:57.936Z,6.50
2023-05-03T01:55:29.823Z,5.55
2023-05-03T01:58:02.929Z,6.13
2023-05-03T02:00:35.525Z,6.77
2023-05-03T02:03:07.966Z,6.40
2023-05-03T02:05:40.388Z,6.05
2023-05-03T02:08:12.493Z,6.80
2023-05-03T02:10:45.389Z,6.82
2023-05-03T02:13:17.722Z,6.83
2023-05-03T02:15:50.637Z,7.15
2023-05-03T02:18:22.513Z,7.68
2023-05-03T02:20:58.138Z,7.88
2023-05-03T02:23:30.405Z,7.57
2023-05-03T02:26:03.329Z,7.90
2023-05-03T02:28:35.253Z,8.60
2023-05-03T02:31:09.241Z,7.22
2023-05-03T02:33:42.257Z,6.70
2023-05-03T02:36:14.997Z,7.13
2023-05-03T02:38:49.819Z,6.43
2023-05-03T02:41:24.086Z,7.47
2023-05-03T02:43:56.636Z,7.35
2023-05-03T02:46:32.007Z,8.38
2023-05-03T02:49:04.905Z,7.70
2023-05-03T02:51:38.142Z,8.13
2023-05-03T02:54:11.338Z,9.10
2023-05-03T02:56:44.557Z,8.85
2023-05-03T02:59:16.475Z,9.40
2023-05-03T03:01:51.675Z,8.65
2023-05-03T03:04:24.107Z,9.03
2023-05-03T03:06:57.518Z,8.93
2023-05-03T03:09:29.986Z,8.90
2023-05-03T03:12:04.825Z,9.00
2023-05-03T03:14:37.967Z,9.25
2023-05-03T03:17:11.620Z,9.40
2023-05-03T03:19:44.619Z,9.05
2023-05-03T03:22:18.158Z,10.00
2023-05-03T03:24:52.652Z,8.65
2023-05-03T03:27:25.189Z,9.55
2023-05-03T03:29:57.096Z,9.20
2023-05-03T03:32:30.613Z,9.50
2023-05-03T03:35:05.664Z,9.00
2023-05-03T03:37:40.380Z,9.52
2023-05-03T03:40:12.813Z,9.05
2023-05-03T03:42:46.303Z,9.60
2023-05-03T03:45:18.710Z,10.18
2023-05-03T03:47:53.582Z,9.75
2023-05-03T03:50:28.654Z,9.95
2023-05-03T03:53:01.908Z,10.15
2023-05-03T03:55:34.087Z,10.97
2023-05-03T03:58:07.134Z,10.32
2023-05-03T04:00:40.077Z,10.45
2023-05-03T04:03:19.304Z,10.95
2023-05-03T04:05:53.533Z,11.25
2023-05-03T04:08:27.445Z,11.50
2023-05-03T04:10:59.770Z,11.85
2023-05-03T04:13:32.740Z,12.20
2023-05-03T04:16:08.956Z,11.65
2023-05-03T04:18:43.060Z,11.32
2023-05-03T04:21:15.103Z,12.13
2023-05-03T04:23:48.682Z,11.55
2023-05-03T04:26:31.145Z,11.10
2023-05-03T04:29:20.396Z,10.98
2023-05-03T04:31:53.286Z,11.30
2023-05-03T04:34:26.321Z,11.80
2023-05-03T04:37:00.917Z,10.35
2023-05-03T04:39:34.194Z,9.68
2023-05-03T04:42:07.806Z,10.45
2023-05-03T04:44:40.722Z,10.60
2023-05-03T04:47:12.810Z,10.67
2023-05-03T04:49:47.582Z,10.57
2023-05-03T04:52:21.060Z,9.55
2023-05-03T04:54:54.765Z,10.20
2023-05-03T04:57:28.610Z,10.23
2023-05-03T05:00:03.524Z,10.43
2023-05-03T05:02:36.575Z,10.50
2023-05-03T05:05:11.509Z,12.00
2023-05-03T05:07:44.213Z,11.73
2023-05-03T05:10:17.513Z,12.48
2023-05-03T05:12:50.950Z,11.23
2023-05-03T05:15:23.460Z,11.88
2023-05-03T05:17:57.394Z,12.38
2023-05-03T05:20:29.882Z,11.80
2023-05-03T05:23:03.814Z,11.93
2023-05-03T05:25:37.110Z,12.13
2023-05-03T05:28:11.852Z,11.77
2023-05-03T05:30:45.037Z,13.90
2023-05-03T05:33:19.054Z,13.55
2023-05-03T05:35:53.050Z,13.10
2023-05-03T05:38:27.793Z,13.07
2023-05-03T05:41:04.579Z,13.23
2023-05-03T05:43:39.008Z,13.63
2023-05-03T05:46:14.236Z,12.95
2023-05-03T05:48:47.044Z,11.38
2023-05-03T05:51:20.926Z,10.63
2023-05-03T05:53:54.285Z,9.82
2023-05-03T05:56:26.585Z,10.18
2023-05-03T05:59:01.553Z,9.15
2023-05-03T06:01:34.355Z,10.90
2023-05-03T06:04:08.993Z,11.57
2023-05-03T06:06:42.047Z,10.70
2023-05-03T06:09:24.280Z,13.30
2023-05-03T06:12:03.898Z,12.40
2023-05-03T06:14:46.274Z,12.00
2023-05-03T06:17:25.548Z,12.40
2023-05-03T06:20:01.769Z,13.23
2023-05-03T06:22:35.322Z,12.30
2023-05-03T06:25:07.838Z,12.15
2023-05-03T06:27:42.575Z,12.48
2023-05-03T06:30:15.677Z,11.50
2023-05-03T06:32:49.029Z,11.23
2023-05-03T06:35:23.186Z,11.57
2023-05-03T06:37:56.044Z,11.20
2023-05-03T06:40:28.128Z,11.50
2023-05-03T06:43:02.370Z,11.30
2023-05-03T06:45:43.334Z,12.02
2023-05-03T06:48:18.480Z,11.07
2023-05-03T06:50:50.706Z,12.23
2023-05-03T06:53:23.966Z,11.85
2023-05-03T06:55:55.915Z,12.23
2023-05-03T06:58:29.141Z,11.25
2023-05-03T07:01:02.747Z,11.43
2023-05-03T07:03:40.123Z,9.98
2023-05-03T07:06:16.090Z,11.48
2023-05-03T07:08:50.410Z,11.10
2023-05-03T07:11:25.747Z,11.38
2023-05-03T07:13:58.821Z,11.07
2023-05-03T07:16:31.151Z,10.38
2023-05-03T07:19:04.996Z,10.60
2023-05-03T07:21:37.558Z,10.23
2023-05-03T07:24:12.766Z,10.32
2023-05-03T07:26:48.501Z,10.27
2023-05-03T07:29:22.243Z,11.70
2023-05-03T07:31:56.913Z,8.43
2023-05-03T07:34:28.919Z,9.33
2023-05-03T07:37:02.562Z,8.70
2023-05-03T07:39:35.125Z,9.10
2023-05-03T07:42:09.160Z,8.27
2023-05-03T07:44:41.125Z,8.07
2023-05-03T07:47:16.231Z,8.33
2023-05-03T07:49:50.769Z,8.30
2023-05-03T07:52:25.727Z,8.98
2023-05-03T07:54:59.554Z,8.20
2023-05-03T07:57:36.142Z,8.32
2023-05-03T08:00:10.948Z,8.00
2023-05-03T08:02:47.776Z,8.82
2023-05-03T08:08:36.535Z,8.52
2023-05-03T08:11:12.034Z,8.57
2023-05-03T08:13:43.922Z,8.13
2023-05-03T08:16:17.861Z,8.55
2023-05-03T08:18:50.459Z,8.93
2023-05-03T08:21:25.592Z,9.20
2023-05-03T08:23:58.560Z,8.13
2023-05-03T08:26:31.691Z,8.23
2023-05-03T08:29:05.092Z,8.98
2023-05-03T08:31:37.937Z,9.75
2023-05-03T08:34:12.451Z,8.73
2023-05-03T08:36:45.430Z,8.98
2023-05-03T08:39:18.804Z,7.93
2023-05-03T08:41:53.187Z,8.50
2023-05-03T08:44:30.114Z,8.43
2023-05-03T08:47:02.669Z,9.32
2023-05-03T08:49:38.376Z,8.93
2023-05-03T08:52:13.992Z,9.27
2023-05-03T08:54:47.502Z,9.50
2023-05-03T08:57:22.983Z,8.40
2023-05-03T09:00:00.681Z,9.00
2023-05-03T09:02:35.336Z,9.55
2023-05-03T09:05:16.551Z,8.77
2023-05-03T09:08:08.019Z,8.73
2023-05-03T09:10:42.651Z,8.55
2023-05-03T09:13:15.813Z,9.55
2023-05-03T09:15:57.774Z,8.20
2023-05-03T09:18:32.120Z,8.27
2023-05-03T09:21:06.730Z,8.60
2023-05-03T09:23:41.438Z,9.00
2023-05-03T09:26:31.385Z,8.57
2023-05-03T09:29:05.389Z,8.43
2023-05-03T09:31:58.768Z,8.00
2023-05-03T09:34:32.937Z,7.82
2023-05-03T09:37:04.931Z,8.48
2023-05-03T09:39:38.812Z,8.40
2023-05-03T09:42:17.355Z,8.10
2023-05-03T09:44:54.488Z,7.63
2023-05-03T09:47:31.798Z,8.45
2023-05-03T09:50:07.685Z,8.68
2023-05-03T09:52:40.338Z,8.85
2023-05-03T09:55:12.722Z,8.90
2023-05-03T09:57:48.052Z,8.20
2023-05-03T10:00:21.057Z,8.30
2023-05-03T10:02:58.206Z,7.53
2023-05-03T10:05:33.774Z,7.78
2023-05-03T10:08:06.430Z,8.55
2023-05-03T10:10:42.376Z,7.97
2023-05-03T10:13:15.146Z,8.13
2023-05-03T10:15:50.520Z,8.30
2023-05-03T10:18:26.367Z,7.55
2023-05-03T10:21:15.447Z,7.38
2023-05-03T10:24:14.158Z,7.00
2023-05-03T10:26:48.455Z,7.68
2023-05-03T10:29:35.981Z,7.63
2023-05-03T10:32:43.551Z,7.40
2023-05-03T10:35:17.325Z,7.53
2023-05-03T10:37:52.196Z,7.30
2023-05-03T10:40:24.490Z,7.25
2023-05-03T10:42:57.043Z,7.20
2023-05-03T10:45:29.599Z,7.10
2023-05-03T10:48:11.273Z,6.35
2023-05-03T10:50:43.712Z,6.50
2023-05-03T10:53:40.434Z,6.85
2023-05-03T10:56:15.610Z,7.00
2023-05-03T10:58:56.973Z,6.35
2023-05-03T11:01:29.850Z,6.30
2023-05-03T11:04:33.076Z,5.43
2023-05-03T11:07:05.074Z,6.00
2023-05-03T11:09:37.674Z,5.93
2023-05-03T11:12:12.361Z,5.10
2023-05-03T11:14:45.054Z,6.65
2023-05-03T11:17:17.207Z,5.40
2023-05-03T11:19:50.351Z,5.72
2023-05-03T11:22:22.283Z,5.50
2023-05-03T11:24:54.573Z,5.00
2023-05-03T11:27:26.566Z,4.68
2023-05-03T11:29:59.840Z,4.97
2023-05-03T11:32:32.767Z,4.90
2023-05-03T11:35:07.998Z,5.13
2023-05-03T11:37:39.944Z,5.13
2023-05-03T11:40:19.523Z,4.88
2023-05-03T11:42:58.366Z,4.43
2023-05-03T11:45:44.886Z,4.68
2023-05-03T11:48:17.650Z,4.78
2023-05-03T11:50:55.724Z,4.80
2023-05-03T11:53:27.866Z,4.93
2023-05-03T11:56:01.170Z,4.10
2023-05-03T11:58:33.166Z,4.30
2023-05-03T12:01:05.887Z,4.47
2023-05-03T12:03:37.883Z,3.10
2023-05-03T12:06:11.838Z,3.20
2023-05-03T12:08:45.168Z,2.93
2023-05-03T12:11:18.583Z,2.92
2023-05-03T12:13:59.973Z,2.95
2023-05-03T12:16:52.382Z,3.00
2023-05-03T12:19:33.439Z,3.00
2023-05-03T12:22:26.067Z,2.97
2023-05-03T12:24:59.297Z,2.95
2023-05-03T12:27:32.793Z,2.92
2023-05-03T12:30:07.991Z,2.70
2023-05-03T12:32:44.389Z,2.90
2023-05-03T12:35:20.971Z,3.00
2023-05-03T12:40:34.389Z,3.17
2023-05-03T12:43:07.804Z,3.10
2023-05-03T12:45:41.113Z,3.17
2023-05-03T12:48:14.289Z,2.83
2023-05-03T12:50:46.454Z,3.20
2023-05-03T12:53:19.675Z,3.78
2023-05-03T12:55:52.404Z,3.45
2023-05-03T12:58:49.836Z,3.15
2023-05-03T13:02:05.039Z,3.13
2023-05-03T13:06:58.081Z,3.15
2023-05-03T13:10:12.577Z,3.35
2023-05-03T13:12:25.578Z,3.35
2023-05-03T13:14:58.300Z,3.50
2023-05-03T13:17:31.606Z,3.80
2023-05-03T13:20:08.542Z,3.70
2023-05-03T13:22:40.525Z,3.70
2023-05-03T13:25:13.659Z,3.30
2023-05-03T13:27:47.045Z,3.40
2023-05-03T13:30:26.108Z,3.60
2023-05-03T13:32:58.464Z,4.03
2023-05-03T13:35:31.257Z,3.30
2023-05-03T13:38:03.145Z,3.47
2023-05-03T13:40:35.498Z,3.40
2023-05-03T13:43:07.681Z,3.28
2023-05-03T13:45:40.066Z,3.38
2023-05-03T13:48:17.585Z,3.33
2023-05-03T13:50:51.220Z,3.42
2023-05-03T13:53:23.266Z,3.47
2023-05-03T13:55:56.154Z,3.60
2023-05-03T13:58:28.030Z,3.45
2023-05-03T14:01:00.391Z,2.97
2023-05-03T14:03:33.948Z,3.78
2023-05-03T14:06:08.667Z,3.40
2023-05-03T14:08:41.516Z,3.35
2023-05-03T14:11:18.906Z,3.08
2023-05-03T14:13:56.846Z,3.72
2023-05-03T14:16:40.756Z,4.00
2023-05-03T14:19:14.987Z,3.70
2023-05-03T14:21:50.606Z,3.42
2023-05-03T14:24:22.886Z,3.45
2023-05-03T14:26:55.634Z,3.50
2023-05-03T14:29:27.608Z,3.65
2023-05-03T14:32:00.051Z,3.27
2023-05-03T14:34:32.496Z,3.65
2023-05-03T14:37:04.880Z,3.70
2023-05-03T14:39:36.825Z,3.33
2023-05-03T14:42:11.142Z,3.42
2023-05-03T14:44:43.023Z,4.40
2023-05-03T14:47:15.458Z,3.92
2023-05-03T14:49:47.406Z,3.70
2023-05-03T14:52:19.751Z,3.67
2023-05-03T14:54:52.630Z,3.72
2023-05-03T14:57:25.009Z,3.30
2023-05-03T14:59:56.966Z,3.47
2023-05-03T15:02:29.511Z,3.38
2023-05-03T15:05:03.588Z,3.58
2023-05-03T15:07:35.921Z,3.50
2023-05-03T15:10:10.003Z,3.40
2023-05-03T15:12:42.583Z,3.30
2023-05-03T15:15:15.785Z,3.50
2023-05-03T15:17:48.344Z,3.40
2023-05-03T15:20:20.453Z,3.25
2023-05-03T15:22:52.857Z,3.77
2023-05-03T15:25:24.735Z,3.35
2023-05-03T15:27:57.487Z,3.42
2023-05-03T15:30:29.425Z,3.17
2023-05-03T15:33:02.429Z,3.22
2023-05-03T15:35:39.120Z,3.73
2023-05-03T15:38:11.440Z,3.60
2023-05-03T15:40:43.553Z,3.65
2023-05-03T15:43:15.877Z,3.90
2023-05-03T15:45:47.878Z,3.10
2023-05-03T15:48:20.239Z,4.07
2023-05-03T15:50:52.334Z,3.45
2023-05-03T15:53:25.836Z,4.05
2023-05-03T15:55:58.218Z,3.47
2023-05-03T15:58:31.321Z,3.20
2023-05-03T16:01:04.086Z,3.70
2023-05-03T16:03:36.569Z,3.50
2023-05-03T16:06:09.526Z,3.63
2023-05-03T16:08:42.453Z,3.58
2023-05-03T16:11:15.031Z,3.10
2023-05-03T16:13:47.288Z,3.60
2023-05-03T16:16:19.234Z,3.70
2023-05-03T16:18:51.671Z,3.95
2023-05-03T16:21:23.595Z,3.72
2023-05-03T16:23:56.638Z,3.78
2023-05-03T16:26:28.779Z,3.77
2023-05-03T16:29:01.672Z,3.50
2023-05-03T16:31:33.636Z,3.90
2023-05-03T16:34:06.259Z,4.13
2023-05-03T16:36:48.261Z,3.90
2023-05-03T16:39:20.788Z,3.50
2023-05-03T16:41:52.846Z,3.70
2023-05-03T16:44:25.387Z,3.67
2023-05-03T16:46:57.357Z,4.10
2023-05-03T16:49:34.588Z,3.65
2023-05-03T16:52:06.732Z,3.70
2023-05-03T16:54:39.090Z,3.80
2023-05-03T16:57:10.995Z,3.88
2023-05-03T16:59:43.377Z,3.83
2023-05-03T17:02:15.350Z,4.10
2023-05-03T17:04:47.742Z,4.07
2023-05-03T17:07:20.024Z,3.75
2023-05-03T17:09:53.014Z,3.70
2023-05-03T17:12:25.392Z,3.88
2023-05-03T17:14:58.117Z,3.60
2023-05-03T17:17:32.554Z,10.60
2023-05-03T17:20:05.992Z,4.22
2023-05-03T17:22:38.132Z,4.32
2023-05-03T17:25:10.930Z,4.65
2023-05-03T17:27:43.907Z,6.03
2023-05-03T17:30:17.773Z,7.07
2023-05-03T17:32:51.549Z,6.65
2023-05-03T17:35:25.237Z,4.90
2023-05-03T17:37:58.130Z,4.45
2023-05-03T17:40:30.460Z,4.50
2023-05-03T17:43:02.599Z,3.83
2023-05-03T17:45:34.944Z,4.13
2023-05-03T17:48:07.450Z,4.10
2023-05-03T17:50:40.303Z,4.22
2023-05-03T17:53:12.256Z,3.83
2023-05-03T17:58:37.888Z,3.28
2023-05-03T18:01:11.370Z,3.78
2023-05-03T18:03:43.600Z,4.15
2023-05-03T18:06:16.729Z,4.10
2023-05-03T18:08:52.335Z,3.30
2023-05-03T18:11:26.346Z,4.18
2023-05-03T18:13:59.812Z,3.53
2023-05-03T18:16:33.129Z,4.35
2023-05-03T18:19:05.312Z,4.18
2023-05-03T18:21:39.306Z,3.97
2023-05-03T18:24:11.878Z,3.78
2023-05-03T18:26:45.005Z,3.72
2023-05-03T18:29:16.938Z,3.88
2023-05-03T18:31:50.852Z,3.50
2023-05-03T18:34:24.510Z,3.43
2023-05-03T18:36:56.850Z,3.38
2023-05-03T18:39:29.897Z,3.80
2023-05-03T18:42:01.814Z,5.43
2023-05-03T18:44:36.177Z,3.33
2023-05-03T18:47:10.223Z,3.00
2023-05-03T18:49:47.339Z,3.00
2023-05-03T18:52:23.207Z,3.17
2023-05-03T18:54:56.074Z,3.40
2023-05-03T18:57:28.332Z,3.55
2023-05-03T19:00:02.704Z,3.27
2023-05-03T19:02:35.992Z,2.95
2023-05-03T19:05:10.853Z,3.10
2023-05-03T19:07:48.147Z,3.22
2023-05-03T19:10:21.399Z,3.92
2023-05-03T19:12:53.719Z,3.30
2023-05-03T19:15:27.452Z,3.40
2023-05-03T19:17:59.889Z,2.90
2023-05-03T19:20:32.167Z,3.38
2023-05-03T19:23:05.593Z,3.60
2023-05-03T19:25:37.970Z,3.00
2023-05-03T19:28:12.160Z,3.30
2023-05-03T19:30:46.225Z,3.60
2023-05-03T19:33:20.370Z,3.17
2023-05-03T19:35:54.427Z,3.58
2023-05-03T19:38:28.372Z,3.40
2023-05-03T19:41:05.928Z,3.13
2023-05-03T19:44:00.214Z,3.33
2023-05-03T19:46:33.692Z,3.20
2023-05-03T19:49:07.527Z,3.45
2023-05-03T19:51:39.475Z,3.30
2023-05-03T19:54:12.947Z,3.47
2023-05-03T19:56:45.305Z,3.38
2023-05-03T19:59:18.634Z,3.10
2023-05-03T20:01:51.079Z,3.60
2023-05-03T20:04:24.887Z,3.23
2023-05-03T20:06:57.414Z,3.45
2023-05-03T20:09:30.547Z,3.83
2023-05-03T20:12:03.541Z,3.45
2023-05-03T20:14:36.418Z,3.90
2023-05-03T20:17:08.373Z,3.90
2023-05-03T20:19:41.457Z,3.90
2023-05-03T20:22:13.414Z,3.50
2023-05-03T20:24:46.933Z,4.28
2023-05-03T20:27:18.956Z,4.07
2023-05-03T20:29:52.146Z,4.40
2023-05-03T20:32:26.492Z,4.40
2023-05-03T20:34:59.707Z,4.28
2023-05-03T20:37:31.879Z,4.53
2023-05-03T20:40:06.117Z,4.93
2023-05-03T20:42:39.066Z,4.50
2023-05-03T20:45:11.915Z,4.10
2023-05-03T20:47:44.648Z,4.43
2023-05-03T20:50:17.042Z,4.65
2023-05-03T20:52:50.521Z,4.90
2023-05-03T20:55:23.107Z,4.70
2023-05-03T20:57:56.098Z,4.57
2023-05-03T21:00:28.849Z,5.07
2023-05-03T21:03:25.857Z,4.80
2023-05-03T21:05:58.180Z,4.78
2023-05-03T21:08:30.931Z,4.97
2023-05-03T21:11:04.167Z,4.95
2023-05-03T21:13:36.608Z,4.60
2023-05-03T21:16:09.277Z,4.90
2023-05-03T21:18:42.152Z,4.97
2023-05-03T21:21:14.597Z,4.90
2023-05-03T21:23:47.658Z,5.00
2023-05-03T21:26:19.744Z,5.53
2023-05-03T21:28:52.933Z,5.03
2023-05-03T21:31:25.297Z,5.28
2023-05-03T21:33:58.638Z,5.37
2023-05-03T21:36:32.561Z,4.80
2023-05-03T21:39:05.445Z,5.32
2023-05-03T21:41:38.457Z,5.10
2023-05-03T21:44:12.368Z,5.10
2023-05-03T21:46:44.763Z,5.43
2023-05-03T21:49:17.678Z,5.20
2023-05-03T21:51:49.563Z,4.80
2023-05-03T21:54:22.261Z,4.90
2023-05-03T21:56:54.152Z,4.80
2023-05-03T21:59:26.872Z,4.37
2023-05-03T22:01:59.480Z,4.50
2023-05-03T22:04:31.976Z,5.63
2023-05-03T22:07:04.755Z,4.85
2023-05-03T22:09:37.252Z,5.53
2023-05-03T22:12:22.719Z,4.97
2023-05-03T22:14:56.216Z,4.97
2023-05-03T22:17:29.221Z,4.70
2023-05-03T22:20:01.121Z,4.18
2023-05-03T22:22:34.473Z,4.60
2023-05-03T22:25:06.921Z,4.63
2023-05-03T22:27:39.666Z,4.80
2023-05-03T22:30:25.834Z,4.72
2023-05-03T22:33:01.684Z,5.03
2023-05-03T22:35:33.977Z,4.65
2023-05-03T22:38:28.254Z,4.93
2023-05-03T22:41:00.985Z,4.80
2023-05-03T22:43:33.936Z,4.43
2023-05-03T22:46:06.172Z,4.63
2023-05-03T22:48:39.046Z,4.65
2023-05-03T22:51:11.674Z,4.68
2023-05-03T22:53:44.015Z,4.40
2023-05-03T22:56:17.009Z,4.88
2023-05-03T22:58:49.807Z,4.35
2023-05-03T23:01:22.210Z,5.30
2023-05-03T23:03:54.478Z,4.22
2023-05-03T23:06:27.282Z,4.53
2023-05-03T23:09:01.005Z,4.72
2023-05-03T23:11:33.766Z,4.80
2023-05-03T23:14:06.482Z,4.97
2023-05-03T23:16:39.318Z,4.65
2023-05-03T23:19:11.828Z,4.80
2023-05-03T23:21:44.624Z,4.47
2023-05-03T23:24:17.401Z,4.65
2023-05-03T23:26:50.573Z,4.82
2023-05-03T23:29:23.366Z,4.60
2023-05-03T23:31:56.802Z,5.27
2023-05-03T23:34:29.294Z,5.03
2023-05-03T23:37:02.045Z,5.10
2023-05-03T23:39:34.688Z,5.05
2023-05-03T23:42:07.038Z,5.10
2023-05-03T23:44:53.816Z,4.70
2023-05-03T23:47:27.992Z,4.72
2023-05-03T23:49:59.988Z,4.82
2023-05-03T23:52:32.803Z,5.30
2023-05-03T23:55:06.323Z,4.93
2023-05-03T23:57:38.752Z,5.37
